• Join FlightAware (Why Join?)
  • Login
  • US Flag 
05:48PM EDT


 

Airport Tracker/Info


-or-


 

Live Flight TrackerFlight Track Log ✈ UAL978 ✈ 07-Sep-2013 ✈ SBGR / GRU - KIAH

Flight Track Log - Related Links

Times and Time Zones

All times are in EDT time to prevent confusion due to time zone crossing. See the UAL978 flight status page for this flight to view local times or setup timezone preferences in your user account.

Time Position Orientation Groundspeed Altitude Reporting Facility
EDT Latitude Longitude Course Direction KTS MPH feet Rate Location/Type
08:19PM -23.6210 -46.6580 222° Southwest 342 394 11,400  Level FlightAware
08:19PM -23.6150 -46.7290 275° West 375 432 12,200 2,100 Climbing FlightAware
08:20PM -23.6060 -46.7860 280° West 384 442 13,200 2,280 Climbing FlightAware
08:21PM -23.5890 -46.8840 281° West 392 451 15,200 2,340 Climbing FlightAware
08:21PM -23.5790 -46.9430 280° West 396 456 16,400 2,220 Climbing FlightAware
08:22PM -23.5650 -47.0330 280° West 408 470 17,700 2,100 Climbing FlightAware
08:22PM -23.5530 -47.1040 280° West 415 478 18,700 1,920 Climbing FlightAware
08:23PM -23.5390 -47.1870 280° West 419 482 20,000 1,800 Climbing FlightAware
08:24PM -23.5250 -47.2720 280° West 425 489 21,100 1,500 Climbing FlightAware
08:24PM -23.5090 -47.3560 282° West 434 499 22,000 1,440 Climbing FlightAware
08:25PM -23.4800 -47.4170 297° West 445 512 22,800 1,440 Climbing FlightAware
08:25PM -23.4380 -47.4810 306° West 447 514 23,600 1,320 Climbing FlightAware
08:26PM -23.3720 -47.5770 307° West 462 532 24,700 1,200 Climbing FlightAware
08:27PM -23.3260 -47.6440 307° West 469 540 25,400 1,140 Climbing FlightAware
08:28PM -23.2790 -47.7130 307° West 476 548 26,100 1,260 Climbing FlightAware
08:28PM -23.2380 -47.7860 301° West 477 549 26,900 1,620 Climbing FlightAware
08:29PM -23.1940 -47.8510 306° West 469 540 28,000 1,860 Climbing FlightAware
08:29PM -23.1430 -47.9110 313° West 462 532 29,100 1,680 Climbing FlightAware
08:30PM -23.0970 -47.9770 307° West 459 528 30,000 840 Climbing FlightAware
08:30PM -23.0600 -48.0330 306° West 461 531 30,000  Level FlightAware
08:31PM -23.0020 -48.1000 313° West 461 531 30,000  Level FlightAware
08:32PM -22.9540 -48.1630 310° West 460 529 30,000  Level FlightAware
08:32PM -22.8960 -48.2360 311° West 460 529 30,000  Level FlightAware
08:33PM -22.8500 -48.2960 310° West 461 531 30,000  Level FlightAware
08:33PM -22.8030 -48.3560 310° West 461 531 30,000  Level FlightAware
08:34PM -22.7530 -48.4200 310° West 462 532 30,000  Level FlightAware
08:35PM -22.7060 -48.4810 310° West 464 534 30,000  Level FlightAware
08:35PM -22.6540 -48.5460 311° West 464 534 30,000  Level FlightAware
08:36PM -22.6120 -48.6020 309° West 466 536 30,000  Level FlightAware
08:36PM -22.5700 -48.6690 304° West 466 536 30,000  Level FlightAware
08:37PM -22.5090 -48.7340 315° West 469 540 30,000  Level FlightAware
08:38PM -22.4660 -48.8020 304° West 469 540 30,000  Level FlightAware
08:38PM -22.4110 -48.8570 317° Northwest 470 541 30,000  Level FlightAware
08:39PM -22.3610 -48.9220 310° West 470 541 30,000  Level FlightAware
08:39PM -22.3100 -48.9860 311° West 471 542 30,000  Level FlightAware
08:40PM -22.2590 -49.0510 310° West 471 542 30,000  Level FlightAware
08:40PM -22.2150 -49.1060 311° West 471 542 30,000  Level FlightAware
08:41PM -22.1630 -49.1720 310° West 471 542 30,000  Level FlightAware
08:42PM -22.1140 -49.2340 310° West 472 543 30,000  Level FlightAware
08:42PM -22.0660 -49.2920 312° West 473 544 30,000  Level FlightAware
08:43PM -22.0140 -49.3600 310° West 473 544 30,000  Level FlightAware
08:43PM -21.9620 -49.4260 310° West 473 544 30,000  Level FlightAware
08:44PM -21.9170 -49.4830 310° West 475 547 30,000  Level FlightAware
08:45PM -21.8650 -49.5480 311° West 475 547 30,000  Level FlightAware
08:45PM -21.8140 -49.6120 311° West 475 547 30,000  Level FlightAware
08:46PM -21.7680 -49.6690 311° West 475 547 30,000  Level FlightAware
08:46PM -21.7130 -49.7390 310° West 475 547 30,000  Level FlightAware
08:47PM -21.6630 -49.7980 312° West 473 544 30,000  Level FlightAware
08:47PM -21.6140 -49.8620 309° West 472 543 30,000  Level FlightAware
08:48PM -21.5660 -49.9210 311° West 471 542 30,000  Level FlightAware
08:49PM -21.5140 -49.9860 311° West 470 541 30,000  Level FlightAware
08:49PM -21.4630 -50.0500 311° West 468 539 30,000  Level FlightAware
08:50PM -21.4140 -50.1060 313° West 468 539 30,000  Level FlightAware
08:50PM -21.3620 -50.1640 314° West 468 539 30,000  Level FlightAware
08:51PM -21.3170 -50.2190 311° West 468 539 30,000  Level FlightAware
08:52PM -21.2540 -50.2850 316° Northwest 468 539 30,000  Level FlightAware
08:52PM -21.2010 -50.3440 314° West 468 539 30,000  Level FlightAware
08:53PM -21.1480 -50.4030 314° West 466 536 30,000  Level FlightAware
08:53PM -21.0930 -50.4630 314° West 465 535 30,000  Level FlightAware
08:54PM -21.0460 -50.5220 310° West 464 534 30,000  Level FlightAware
08:55PM -20.9910 -50.5760 317° Northwest 464 534 30,000  Level FlightAware
08:55PM -20.9350 -50.6370 315° West 462 532 30,000  Level FlightAware
08:56PM -20.8700 -50.7150 312° West 459 528 30,000  Level FlightAware
08:56PM -20.8210 -50.7680 315° West 458 527 30,000  Level FlightAware
08:57PM -20.7700 -50.8180 317° Northwest 456 525 30,000  Level FlightAware
08:58PM -20.7150 -50.8750 316° Northwest 453 521 30,000  Level FlightAware
08:58PM -20.6750 -50.9180 315° West 453 521 30,000  Level FlightAware
08:59PM -20.6080 -50.9920 314° West 450 518 30,000  Level FlightAware
08:59PM -20.5640 -51.0360 317° Northwest 449 517 30,000  Level FlightAware
09:00PM -20.5170 -51.0870 315° West 449 517 30,000  Level FlightAware
09:01PM -20.4340 -51.1750 315° West 448 516 30,000  Level FlightAware
09:01PM -20.3870 -51.2250 315° West 448 516 30,000  Level FlightAware
09:02PM -20.3420 -51.2730 315° West 448 516 30,000  Level FlightAware
09:03PM -20.2800 -51.3390 315° West 446 513 30,000  Level FlightAware
09:03PM -20.2110 -51.4140 314° West 444 511 30,000  Level FlightAware
09:04PM -20.1660 -51.4620 315° West 444 511 30,000  Level FlightAware
09:05PM -20.1000 -51.5380 313° West 442 509 30,000  Level FlightAware
09:05PM -20.0470 -51.5890 318° Northwest 441 507 30,000  Level FlightAware
09:06PM -19.9950 -51.6450 315° West 441 507 30,000  Level FlightAware
09:07PM -19.9510 -51.6920 315° West 441 507 30,000  Level FlightAware
09:07PM -19.9070 -51.7390 315° West 441 507 30,000  Level FlightAware
09:07PM -20.0300 -51.6090 135° Southeast 434 499 30,000  Level FlightAware
09:08PM -20.0060 -51.6750 291° West 434 499 30,000  Level FlightAware
09:09PM -19.8410 -51.9550 302° West 428 493 30,000  Level FlightAware
09:09PM -19.8130 -52.0240 293° West 428 493 30,000  Level FlightAware
09:10PM -19.7960 -52.0910 285° West 428 493 30,000  Level FlightAware
09:10PM -19.7760 -52.1640 286° West 429 494 30,000  Level FlightAware
09:11PM -19.7630 -52.2000 291° West 428 493 30,000  Level FlightAware
09:11PM -19.7400 -52.2860 286° West 429 494 30,000  Level FlightAware
09:12PM -19.7310 -52.3460 279° West 429 494 30,000  Level FlightAware
09:12PM -19.7170 -52.4270 280° West 429 494 30,000  Level FlightAware
09:13PM -19.7060 -52.4920 280° West 429 494 30,000  Level FlightAware
09:14PM -19.6940 -52.5820 278° West 429 494 30,000  Level FlightAware
09:14PM -19.6760 -52.6620 283° West 429 494 30,000  Level FlightAware
09:15PM -19.6630 -52.7370 280° West 428 493 30,000  Level FlightAware
09:15PM -19.6510 -52.8020 281° West 429 494 30,000 660 Level FlightAware
09:16PM -19.6390 -52.8770 280° West 430 495 30,800 1,440 Climbing FlightAware
09:17PM -19.6340 -52.9670 273° West 423 487 32,000 900 Climbing FlightAware
09:17PM -19.6320 -53.0340 272° West 421 484 32,000  Level FlightAware
09:18PM -19.6210 -53.0990 280° West 420 483 32,000  Level FlightAware
09:19PM -19.6100 -53.1980 277° West 424 488 32,000  Level FlightAware
09:19PM -19.6010 -53.2800 277° West 431 496 32,000  Level FlightAware
09:20PM -19.5810 -53.3480 287° West 433 498 32,000  Level FlightAware
09:21PM -19.5590 -53.4280 286° West 432 497 32,000  Level FlightAware
09:21PM -19.5320 -53.4880 296° West 430 495 32,000  Level FlightAware
09:22PM -19.4930 -53.5490 304° West 431 496 32,000  Level FlightAware
09:22PM -19.4470 -53.6110 308° West 433 498 32,000  Level FlightAware
09:23PM -19.3980 -53.6550 320° Northwest 431 496 32,000  Level FlightAware
09:23PM -19.3360 -53.6960 328° Northwest 435 501 32,000  Level FlightAware
09:24PM -19.2710 -53.7410 327° Northwest 434 499 32,000  Level FlightAware
09:25PM -19.2190 -53.7750 328° Northwest 432 497 32,000  Level FlightAware
09:25PM -19.1600 -53.8160 327° Northwest 428 493 32,000  Level FlightAware
09:26PM -19.1000 -53.8550 328° Northwest 427 491 32,000  Level FlightAware
09:26PM -19.0360 -53.8970 328° Northwest 427 491 32,000  Level FlightAware
09:27PM -18.9790 -53.9370 326° Northwest 426 490 32,000  Level FlightAware
09:28PM -18.9200 -53.9770 327° Northwest 426 490 32,000  Level FlightAware
09:28PM -18.8640 -54.0120 329° Northwest 427 491 32,000  Level FlightAware
09:29PM -18.8100 -54.0500 326° Northwest 426 490 32,000  Level FlightAware
09:29PM -18.7460 -54.0930 328° Northwest 427 491 32,000  Level FlightAware
09:30PM -18.6880 -54.1290 330° Northwest 428 493 32,000  Level FlightAware
09:30PM -18.6280 -54.1690 328° Northwest 428 493 32,000  Level FlightAware
09:31PM -18.5740 -54.2050 328° Northwest 427 491 32,000  Level FlightAware
09:32PM -18.5140 -54.2440 328° Northwest 428 493 32,000  Level FlightAware
09:32PM -18.4580 -54.2840 326° Northwest 427 491 32,000  Level FlightAware
09:33PM -18.3960 -54.3220 330° Northwest 427 491 32,000  Level FlightAware
09:33PM -18.3460 -54.3590 325° Northwest 426 490 32,000  Level FlightAware
09:34PM -18.2770 -54.4060 327° Northwest 426 490 32,000  Level FlightAware
09:35PM -18.2260 -54.4410 327° Northwest 426 490 32,000  Level FlightAware
09:35PM -18.1510 -54.4880 329° Northwest 424 488 32,000  Level FlightAware
09:36PM -18.0930 -54.5230 330° Northwest 424 488 32,000  Level FlightAware
09:36PM -18.0320 -54.5670 326° Northwest 424 488 32,000  Level FlightAware
09:37PM -17.9720 -54.6070 328° Northwest 424 488 32,000  Level FlightAware
09:38PM -17.9030 -54.6530 328° Northwest 423 487 32,000  Level FlightAware
09:39PM -17.8100 -54.7100 330° Northwest 424 488 32,000  Level FlightAware
09:39PM -17.7390 -54.7560 328° Northwest 422 486 32,000  Level FlightAware
09:40PM -17.6930 -54.7940 322° Northwest 420 483 32,000  Level FlightAware
09:41PM -17.6460 -54.8320 322° Northwest 420 483 32,000  Level FlightAware
09:41PM -17.5740 -54.8870 324° Northwest 422 486 32,000  Level FlightAware
09:42PM -17.5280 -54.9230 323° Northwest 422 486 32,000  Level FlightAware
09:42PM -17.4790 -54.9610 324° Northwest 422 486 32,000  Level FlightAware
09:43PM -17.4320 -54.9990 322° Northwest 422 486 32,000  Level FlightAware
09:44PM -17.3810 -55.0390 323° Northwest 422 486 32,000  Level FlightAware
09:44PM -17.3340 -55.0760 323° Northwest 422 486 32,000  Level FlightAware
09:45PM -17.2860 -55.1140 323° Northwest 422 486 32,000  Level FlightAware
09:45PM -17.2370 -55.1530 323° Northwest 422 486 32,000  Level FlightAware
09:46PM -17.1890 -55.1900 324° Northwest 422 486 32,000  Level FlightAware
09:47PM -17.1410 -55.2280 323° Northwest 422 486 32,000  Level FlightAware
09:47PM -17.0940 -55.2660 322° Northwest 422 486 32,000  Level FlightAware
09:48PM -17.0460 -55.3030 324° Northwest 422 486 32,000  Level FlightAware
09:48PM -16.9980 -55.3410 323° Northwest 422 486 32,000  Level FlightAware
09:49PM -16.9510 -55.3790 322° Northwest 422 486 32,000  Level FlightAware
09:50PM -16.9030 -55.4160 324° Northwest 422 486 32,000  Level FlightAware
09:50PM -16.8540 -55.4550 323° Northwest 422 486 32,000  Level FlightAware
09:51PM -16.8060 -55.4920 324° Northwest 422 486 32,000  Level FlightAware
09:52PM -16.5780 -55.6610 325° Northwest 32,000  Level FlightAware
09:52PM -16.5120 -55.7060 327° Northwest 439 505 32,000  Level FlightAware
09:53PM -16.4550 -55.7500 323° Northwest 440 506 32,000  Level FlightAware
09:53PM -16.3930 -55.7970 324° Northwest 440 506 32,000  Level FlightAware
09:54PM -16.3350 -55.8490 319° Northwest 440 506 32,000  Level FlightAware
09:55PM -16.2740 -55.8890 328° Northwest 441 507 32,000  Level FlightAware
09:55PM -16.2170 -55.9320 324° Northwest 441 507 32,000  Level FlightAware
09:56PM -16.1630 -55.9740 323° Northwest 441 507 32,000  Level FlightAware
09:56PM -16.1020 -56.0210 323° Northwest 440 506 32,000  Level FlightAware
09:57PM -16.0450 -56.0650 323° Northwest 441 507 32,000  Level FlightAware
09:58PM -15.9870 -56.1090 324° Northwest 442 509 32,000  Level FlightAware
09:58PM -15.9140 -56.1640 324° Northwest 440 506 32,000  Level FlightAware
09:59PM -15.8690 -56.1980 324° Northwest 440 506 32,000  Level FlightAware
09:59PM -15.8040 -56.2540 320° Northwest 438 504 32,000  Level FlightAware
10:00PM -15.7490 -56.2900 328° Northwest 438 504 32,000  Level FlightAware
10:01PM -15.6880 -56.3370 323° Northwest 436 502 32,000  Level FlightAware
10:01PM -15.6390 -56.3720 325° Northwest 436 502 32,000  Level FlightAware
10:02PM -15.5790 -56.4190 323° Northwest 433 498 32,000  Level FlightAware
10:02PM -15.5210 -56.4690 320° Northwest 432 497 32,000  Level FlightAware
10:03PM -15.4650 -56.5070 327° Northwest 430 495 32,000  Level FlightAware
10:03PM -15.4100 -56.5480 324° Northwest 429 494 32,000  Level FlightAware
10:04PM -15.3580 -56.5870 324° Northwest 430 495 32,000  Level FlightAware
10:05PM -15.2980 -56.6330 324° Northwest 430 495 32,000  Level FlightAware
10:05PM -15.2230 -56.6900 324° Northwest 431 496 32,000  Level FlightAware
10:06PM -15.1700 -56.7300 324° Northwest 431 496 32,000  Level FlightAware
10:07PM -15.1090 -56.7780 323° Northwest 432 497 32,000  Level FlightAware
10:07PM -15.0590 -56.8140 325° Northwest 433 498 32,000  Level FlightAware
10:08PM -15.0080 -56.8520 324° Northwest 433 498 32,000  Level FlightAware
10:08PM -14.9470 -56.8980 324° Northwest 432 497 32,000  Level FlightAware
10:09PM -14.8890 -56.9420 324° Northwest 432 497 32,000  Level FlightAware
10:09PM -14.8330 -56.9850 323° Northwest 431 496 32,000  Level FlightAware
10:10PM -14.7670 -57.0340 324° Northwest 429 494 32,000  Level FlightAware
10:10PM -14.7520 -57.0450 325° Northwest 429 494 32,000  Level FlightAware
10:11PM -14.6520 -57.1200 324° Northwest 429 494 32,000  Level FlightAware
10:12PM -14.5840 -57.1750 322° Northwest 430 495 32,000  Level FlightAware
10:13PM -14.5350 -57.2120 324° Northwest 430 495 32,000  Level FlightAware
10:13PM -14.4860 -57.2490 324° Northwest 430 495 32,000  Level FlightAware
10:14PM -14.4050 -57.3070 325° Northwest 429 494 32,000  Level FlightAware
10:15PM -14.3220 -57.3690 324° Northwest 429 494 32,000  Level FlightAware
10:15PM -14.2730 -57.4050 325° Northwest 429 494 32,000  Level FlightAware
10:16PM -14.2240 -57.4420 324° Northwest 429 494 32,000  Level FlightAware
10:17PM -14.1750 -57.4790 324° Northwest 429 494 32,000  Level FlightAware
10:17PM -14.1240 -57.5170 324° Northwest 429 494 32,000  Level FlightAware
10:18PM -14.0750 -57.5540 324° Northwest 429 494 32,000  Level FlightAware
10:18PM -14.0260 -57.5900 325° Northwest 429 494 32,000  Level FlightAware
10:19PM -13.9770 -57.6270 324° Northwest 429 494 32,000  Level FlightAware
10:20PM -13.9270 -57.6640 324° Northwest 429 494 32,000  Level FlightAware
10:20PM -13.8780 -57.7010 324° Northwest 429 494 32,000  Level FlightAware
10:21PM -13.8290 -57.7380 324° Northwest 429 494 32,000  Level FlightAware
10:21PM -13.7750 -57.7780 324° Northwest 429 494 32,000  Level FlightAware
10:22PM -13.7250 -57.8150 324° Northwest 429 494 32,000  Level FlightAware
10:23PM -13.6760 -57.8520 324° Northwest 429 494 32,000  Level FlightAware
10:23PM -13.6270 -57.8890 324° Northwest 429 494 32,000  Level FlightAware
10:24PM -13.5780 -57.9250 324° Northwest 429 494 32,000  Level FlightAware
10:26PM -13.4205 -58.0566 321° Northwest  Level Estimated
10:27PM -13.3250 -58.1363 321° Northwest  Level Estimated
10:28PM -13.2295 -58.2160 321° Northwest  Level Estimated
10:29PM -13.1339 -58.2955 321° Northwest  Level Estimated
10:30PM -13.0384 -58.3750 321° Northwest  Level Estimated
10:31PM -12.9428 -58.4544 321° Northwest  Level Estimated
10:32PM -12.8472 -58.5338 321° Northwest  Level Estimated
10:33PM -12.7515 -58.6132 321° Northwest  Level Estimated
10:34PM -12.6559 -58.6924 321° Northwest  Level Estimated
10:35PM -12.5602 -58.7716 321° Northwest  Level Estimated
10:36PM -12.4645 -58.8507 321° Northwest  Level Estimated
10:37PM -12.3687 -58.9298 321° Northwest  Level Estimated
10:38PM -12.2730 -59.0089 321° Northwest  Level Estimated
10:39PM -12.1772 -59.0878 321° Northwest  Level Estimated
10:40PM -12.0814 -59.1667 321° Northwest  Level Estimated
10:41PM -11.9856 -59.2456 321° Northwest  Level Estimated
10:42PM -11.8897 -59.3244 321° Northwest  Level Estimated
10:43PM -11.7939 -59.4031 321° Northwest  Level Estimated
10:44PM -11.6980 -59.4818 321° Northwest  Level Estimated
10:45PM -11.6021 -59.5604 321° Northwest  Level Estimated
10:46PM -11.5062 -59.6390 321° Northwest  Level Estimated
10:47PM -11.4102 -59.7175 321° Northwest  Level Estimated
10:48PM -11.3142 -59.7960 321° Northwest  Level Estimated
10:49PM -11.2182 -59.8744 321° Northwest  Level Estimated
10:50PM -11.1222 -59.9528 321° Northwest  Level Estimated
10:51PM -11.0262 -60.0311 321° Northwest  Level Estimated
10:52PM -10.9302 -60.1094 321° Northwest  Level Estimated
10:53PM -10.8341 -60.1876 321° Northwest  Level Estimated
10:54PM -10.7380 -60.2658 321° Northwest  Level Estimated
10:55PM -10.6419 -60.3439 321° Northwest  Level Estimated
10:56PM -10.5457 -60.4219 321° Northwest  Level Estimated
10:57PM -10.4496 -60.5000 321° Northwest  Level Estimated
10:58PM -10.3534 -60.5779 321° Northwest  Level Estimated
10:59PM -10.2572 -60.6558 321° Northwest  Level Estimated
11:00PM -10.1610 -60.7337 321° Northwest  Level Estimated
11:01PM -10.0648 -60.8116 321° Northwest  Level Estimated
11:02PM -9.9686 -60.8893 321° Northwest  Level Estimated
11:03PM -9.8723 -60.9671 321° Northwest  Level Estimated
11:04PM -9.7760 -61.0448 322° Northwest  Level Estimated
11:05PM -9.6797 -61.1224 322° Northwest  Level Estimated
11:06PM -9.5834 -61.2000 322° Northwest  Level Estimated
11:07PM -9.4871 -61.2775 322° Northwest  Level Estimated
11:08PM -9.3907 -61.3550 322° Northwest  Level Estimated
11:09PM -9.2944 -61.4325 322° Northwest  Level Estimated
11:10PM -9.1980 -61.5099 322° Northwest  Level Estimated
11:11PM -9.1016 -61.5873 322° Northwest  Level Estimated
11:12PM -9.0052 -61.6647 322° Northwest  Level Estimated
11:13PM -8.9087 -61.7420 322° Northwest  Level Estimated
11:14PM -8.8123 -61.8192 322° Northwest  Level Estimated
11:15PM -8.7158 -61.8965 322° Northwest  Level Estimated
11:16PM -8.6193 -61.9736 322° Northwest  Level Estimated
11:17PM -8.5229 -62.0508 322° Northwest  Level Estimated
11:18PM -8.4263 -62.1279 322° Northwest  Level Estimated
11:19PM -8.3298 -62.2049 322° Northwest  Level Estimated
11:20PM -8.2333 -62.2820 322° Northwest  Level Estimated
11:21PM -8.1367 -62.3589 322° Northwest  Level Estimated
11:22PM -8.0402 -62.4359 322° Northwest  Level Estimated
11:23PM -7.9436 -62.5128 322° Northwest  Level Estimated
11:24PM -7.8470 -62.5897 322° Northwest  Level Estimated
11:25PM -7.7504 -62.6665 322° Northwest  Level Estimated
11:26PM -7.6537 -62.7433 322° Northwest  Level Estimated
11:27PM -7.5571 -62.8201 322° Northwest  Level Estimated
11:28PM -7.4605 -62.8968 322° Northwest  Level Estimated
11:29PM -7.3638 -62.9735 322° Northwest  Level Estimated
11:30PM -7.2671 -63.0502 322° Northwest  Level Estimated
11:31PM -7.1704 -63.1269 322° Northwest  Level Estimated
11:32PM -7.0737 -63.2034 322° Northwest  Level Estimated
11:33PM -6.9770 -63.2800 322° Northwest  Level Estimated
11:34PM -6.8803 -63.3566 322° Northwest  Level Estimated
11:35PM -6.7835 -63.4331 322° Northwest  Level Estimated
11:36PM -6.6868 -63.5095 322° Northwest  Level Estimated
11:37PM -6.5900 -63.5860 322° Northwest  Level Estimated
11:38PM -6.4932 -63.6624 322° Northwest  Level Estimated
11:39PM -6.3965 -63.7388 322° Northwest  Level Estimated
11:40PM -6.2997 -63.8152 322° Northwest  Level Estimated
11:41PM -6.2028 -63.8915 322° Northwest  Level Estimated
11:42PM -6.1060 -63.9678 322° Northwest  Level Estimated
11:43PM -6.0092 -64.0441 322° Northwest  Level Estimated
11:44PM -5.9124 -64.1203 322° Northwest  Level Estimated
11:45PM -5.8155 -64.1965 322° Northwest  Level Estimated
11:46PM -5.7186 -64.2728 322° Northwest  Level Estimated
11:47PM -5.6218 -64.3489 322° Northwest  Level Estimated
11:48PM -5.5249 -64.4251 322° Northwest  Level Estimated
11:49PM -5.4280 -64.5012 322° Northwest  Level Estimated
11:50PM -5.3311 -64.5773 322° Northwest  Level Estimated
11:51PM -5.2342 -64.6534 322° Northwest  Level Estimated
11:52PM -5.1373 -64.7294 322° Northwest  Level Estimated
11:53PM -5.0403 -64.8054 322° Northwest  Level Estimated
11:54PM -4.9434 -64.8814 322° Northwest  Level Estimated
11:55PM -4.8465 -64.9574 322° Northwest  Level Estimated
11:56PM -4.7495 -65.0334 322° Northwest  Level Estimated
11:57PM -4.6525 -65.1093 322° Northwest  Level Estimated
11:58PM -4.5556 -65.1852 322° Northwest  Level Estimated
11:59PM -4.4586 -65.2611 322° Northwest  Level Estimated
12:00AM -4.3616 -65.3370 322° Northwest  Level Estimated
12:01AM -4.2646 -65.4129 322° Northwest  Level Estimated
12:02AM -4.1676 -65.4887 322° Northwest  Level Estimated
12:03AM -4.0706 -65.5645 322° Northwest  Level Estimated
12:04AM -3.9736 -65.6403 322° Northwest  Level Estimated
12:05AM -3.8765 -65.7161 322° Northwest  Level Estimated
12:06AM -3.7795 -65.7919 322° Northwest  Level Estimated
12:07AM -3.6825 -65.8676 322° Northwest  Level Estimated
12:08AM -3.5854 -65.9433 322° Northwest  Level Estimated
12:09AM -3.4884 -66.0191 322° Northwest  Level Estimated
12:10AM -3.3913 -66.0947 322° Northwest  Level Estimated
12:11AM -3.2943 -66.1704 322° Northwest  Level Estimated
12:12AM -3.1972 -66.2461 322° Northwest  Level Estimated
12:13AM -3.1001 -66.3217 322° Northwest  Level Estimated
12:14AM -3.0031 -66.3974 322° Northwest  Level Estimated
12:15AM -2.9060 -66.4730 322° Northwest  Level Estimated
12:16AM -2.8089 -66.5486 322° Northwest  Level Estimated
12:17AM -2.7118 -66.6242 322° Northwest  Level Estimated
12:18AM -2.6147 -66.6998 322° Northwest  Level Estimated
12:19AM -2.5176 -66.7754 322° Northwest  Level Estimated
12:20AM -2.4205 -66.8510 322° Northwest  Level Estimated
12:21AM -2.3234 -66.9265 322° Northwest  Level Estimated
12:22AM -2.2262 -67.0021 322° Northwest  Level Estimated
12:23AM -2.1291 -67.0776 322° Northwest  Level Estimated
12:24AM -2.0320 -67.1532 322° Northwest  Level Estimated
12:25AM -1.9349 -67.2287 322° Northwest  Level Estimated
12:26AM -1.8377 -67.3042 322° Northwest  Level Estimated
12:27AM -1.7406 -67.3797 322° Northwest  Level Estimated
12:28AM -1.6435 -67.4552 322° Northwest  Level Estimated
12:29AM -1.5463 -67.5306 322° Northwest  Level Estimated
12:30AM -1.4492 -67.6061 322° Northwest  Level Estimated
12:31AM -1.3521 -67.6816 322° Northwest  Level Estimated
12:32AM -1.2549 -67.7571 322° Northwest  Level Estimated
12:33AM -1.1578 -67.8325 322° Northwest  Level Estimated
12:34AM -1.0606 -67.9080 322° Northwest  Level Estimated
12:35AM -0.9635 -67.9834 322° Northwest  Level Estimated
12:36AM -0.8663 -68.0589 322° Northwest  Level Estimated
12:37AM -0.7692 -68.1343 322° Northwest  Level Estimated
12:38AM -0.6720 -68.2098 322° Northwest  Level Estimated
12:39AM -0.5748 -68.2852 322° Northwest  Level Estimated
12:40AM -0.4777 -68.3606 322° Northwest  Level Estimated
12:41AM -0.3805 -68.4361 322° Northwest  Level Estimated
12:42AM -0.2833 -68.5115 322° Northwest  Level Estimated
12:43AM -0.1862 -68.5869 322° Northwest  Level Estimated
12:44AM -0.0890 -68.6624 322° Northwest  Level Estimated
12:45AM 0.0081 -68.7378 322° Northwest  Level Estimated
12:46AM 0.1053 -68.8132 322° Northwest  Level Estimated
12:47AM 0.2025 -68.8886 322° Northwest  Level Estimated
12:48AM 0.2996 -68.9641 322° Northwest  Level Estimated
12:49AM 0.3968 -69.0395 322° Northwest  Level Estimated
12:50AM 0.4939 -69.1149 322° Northwest  Level Estimated
12:51AM 0.5911 -69.1904 322° Northwest  Level Estimated
12:52AM 0.6883 -69.2658 322° Northwest  Level Estimated
12:53AM 0.7854 -69.3412 322° Northwest  Level Estimated
12:54AM 0.8826 -69.4167 322° Northwest  Level Estimated
12:55AM 0.9797 -69.4921 322° Northwest  Level Estimated
12:56AM 1.0769 -69.5676 322° Northwest  Level Estimated
12:57AM 1.1740 -69.6430 322° Northwest  Level Estimated
12:58AM 1.2712 -69.7185 322° Northwest  Level Estimated
12:59AM 1.3683 -69.7940 322° Northwest  Level Estimated
01:00AM 1.4655 -69.8694 322° Northwest  Level Estimated
01:01AM 1.5626 -69.9449 322° Northwest  Level Estimated
01:02AM 1.6597 -70.0204 322° Northwest  Level Estimated
01:03AM 1.7569 -70.0959 322° Northwest  Level Estimated
01:04AM 1.8540 -70.1714 322° Northwest  Level Estimated
01:05AM 1.9511 -70.2469 322° Northwest  Level Estimated
01:06AM 2.0483 -70.3224 322° Northwest  Level Estimated
01:07AM 2.1454 -70.3980 322° Northwest  Level Estimated
01:08AM 2.2425 -70.4735 322° Northwest  Level Estimated
01:09AM 2.3396 -70.5490 322° Northwest  Level Estimated
01:10AM 2.4367 -70.6246 322° Northwest  Level Estimated
01:11AM 2.5338 -70.7002 322° Northwest  Level Estimated
01:12AM 2.6309 -70.7758 322° Northwest  Level Estimated
01:13AM 2.7280 -70.8513 322° Northwest  Level Estimated
01:14AM 2.8251 -70.9269 322° Northwest  Level Estimated
01:15AM 2.9222 -71.0026 322° Northwest  Level Estimated
01:16AM 3.0193 -71.0782 322° Northwest  Level Estimated
01:17AM 3.1164 -71.1538 322° Northwest  Level Estimated
01:18AM 3.2134 -71.2295 322° Northwest  Level Estimated
01:19AM 3.3105 -71.3052 322° Northwest  Level Estimated
01:20AM 3.4076 -71.3809 322° Northwest  Level Estimated
01:21AM 3.5046 -71.4566 322° Northwest  Level Estimated
01:22AM 3.6017 -71.5323 322° Northwest  Level Estimated
01:23AM 3.6987 -71.6080 322° Northwest  Level Estimated
01:24AM 3.7958 -71.6838 322° Northwest  Level Estimated
01:25AM 3.8928 -71.7595 322° Northwest  Level Estimated
01:26AM 3.9898 -71.8353 322° Northwest  Level Estimated
01:27AM 4.0868 -71.9111 322° Northwest  Level Estimated
01:28AM 4.1838 -71.9869 322° Northwest  Level Estimated
01:29AM 4.2808 -72.0628 322° Northwest  Level Estimated
01:30AM 4.3778 -72.1386 322° Northwest  Level Estimated
01:31AM 4.4748 -72.2145 322° Northwest  Level Estimated
01:31AM 5.1490 -72.7910 322° Northwest 480 552 34,000  Level FlightAware
01:31AM 5.2410 -72.8430 331° Northwest 480 552 34,000  Level FlightAware
01:32AM 5.2910 -72.8670 334° Northwest 482 555 34,000  Level FlightAware
01:32AM 5.3790 -72.9180 330° Northwest 482 555 34,000  Level FlightAware
01:33AM 5.4660 -72.9650 332° Northwest 482 555 34,000  Level FlightAware
01:34AM 5.5280 -72.9980 332° Northwest 481 554 34,000  Level FlightAware
01:34AM 5.5790 -73.0220 335° Northwest 483 556 34,000  Level FlightAware
01:35AM 5.6660 -73.0710 331° Northwest 483 556 34,000  Level FlightAware
01:36AM 5.7260 -73.1040 331° Northwest 483 556 34,000  Level FlightAware
01:36AM 5.7860 -73.1370 331° Northwest 483 556 34,000  Level FlightAware
01:37AM 5.8460 -73.1700 331° Northwest 483 556 34,000  Level FlightAware
01:38AM 5.9060 -73.2040 331° Northwest 483 556 34,000  Level FlightAware
01:38AM 5.9650 -73.2370 331° Northwest 483 556 34,000  Level FlightAware
01:39AM 6.0250 -73.2700 331° Northwest 483 556 34,000  Level FlightAware
01:39AM 6.2080 -73.3660 332° Northwest 477 549 34,000  Level FlightAware
01:40AM 6.2560 -73.3880 336° Northwest 478 550 34,000  Level FlightAware
01:41AM 6.3680 -73.4530 330° Northwest 476 548 34,000  Level FlightAware
01:41AM 6.4210 -73.4770 336° Northwest 477 549 34,000  Level FlightAware
01:42AM 6.5000 -73.5240 329° Northwest 475 547 34,000  Level FlightAware
01:43AM 6.5800 -73.5630 334° Northwest 476 548 34,000  Level FlightAware
01:44AM 6.6910 -73.6230 332° Northwest 476 548 34,000  Level FlightAware
01:44AM 6.7510 -73.6550 332° Northwest 477 549 34,000  Level FlightAware
01:45AM 6.8500 -73.7080 332° Northwest 477 549 34,000  Level FlightAware
01:46AM 6.9470 -73.7610 332° Northwest 479 551 34,000  Level FlightAware
01:47AM 7.0230 -73.8050 330° Northwest 482 555 34,000  Level FlightAware
01:47AM 7.0810 -73.8550 319° Northwest 465 535 34,000  Level FlightAware
01:48AM 7.1510 -73.9160 319° Northwest 486 559 34,000  Level FlightAware
01:48AM 7.2020 -73.9630 318° Northwest 486 559 34,000  Level FlightAware
01:49AM 7.2600 -74.0160 318° Northwest 486 559 34,000  Level FlightAware
01:50AM 7.3350 -74.0840 318° Northwest 487 560 34,000  Level FlightAware
01:51AM 7.4200 -74.1610 318° Northwest 488 562 34,000  Level FlightAware
01:51AM 7.4870 -74.2240 317° Northwest 465 535 34,000  Level FlightAware
01:52AM 7.5280 -74.2590 320° Northwest 488 562 34,000  Level FlightAware
01:52AM 7.5850 -74.3100 318° Northwest 464 534 34,000  Level FlightAware
01:53AM 7.6540 -74.3730 318° Northwest 468 539 34,000  Level FlightAware
01:53AM 7.7210 -74.4380 316° Northwest 490 564 34,000  Level FlightAware
01:54AM 7.7810 -74.4930 318° Northwest 490 564 34,000  Level FlightAware
01:55AM 7.8290 -74.5320 321° Northwest 468 539 34,000  Level FlightAware
01:55AM 7.8910 -74.5880 318° Northwest 489 563 34,000  Level FlightAware
01:56AM 7.9580 -74.6540 316° Northwest 489 563 34,000  Level FlightAware
01:56AM 8.0070 -74.6950 320° Northwest 489 563 34,000  Level FlightAware
01:57AM 8.0580 -74.7410 318° Northwest 489 563 34,000  Level FlightAware
01:58AM 8.1260 -74.8030 318° Northwest 489 563 34,000  Level FlightAware
01:58AM 8.1850 -74.8560 318° Northwest 488 562 34,000  Level FlightAware
01:59AM 8.2680 -74.9380 316° Northwest 489 563 34,000  Level FlightAware
02:00AM 8.3230 -74.9830 321° Northwest 488 562 34,000  Level FlightAware
02:00AM 8.3740 -75.0290 318° Northwest 487 560 34,000  Level FlightAware
02:01AM 8.4300 -75.0810 317° Northwest 486 559 34,000  Level FlightAware
02:01AM 8.4930 -75.1380 318° Northwest 484 557 34,000  Level FlightAware
02:02AM 8.5720 -75.2100 318° Northwest 483 556 34,000  Level FlightAware
02:03AM 8.6440 -75.2830 315° West 482 555 34,000  Level FlightAware
02:03AM 8.6970 -75.3250 322° Northwest 480 552 34,000  Level FlightAware
02:04AM 8.7410 -75.3650 318° Northwest 480 552 34,000  Level FlightAware
02:04AM 8.8010 -75.4190 318° Northwest 479 551 34,000  Level FlightAware
02:05AM 8.8800 -75.4930 317° Northwest 478 550 34,000  Level FlightAware
02:06AM 8.9700 -75.5810 316° Northwest 478 550 34,000  Level FlightAware
02:06AM 9.0010 -75.6040 324° Northwest 476 548 34,000  Level FlightAware
02:07AM 9.0690 -75.6660 318° Northwest 476 548 34,000  Level FlightAware
02:08AM 9.1390 -75.7310 317° Northwest 464 534 34,000  Level FlightAware
02:08AM 9.2030 -75.7880 319° Northwest 476 548 34,000  Level FlightAware
02:09AM 9.2920 -75.8770 315° West 476 548 34,000  Level FlightAware
02:10AM 9.3430 -75.9190 321° Northwest 476 548 34,000  Level FlightAware
02:10AM 9.3940 -75.9660 318° Northwest 477 549 34,000  Level FlightAware
02:11AM 9.4510 -76.0180 318° Northwest 476 548 34,000  Level FlightAware
02:12AM 9.5310 -76.0910 318° Northwest 478 550 34,000  Level FlightAware
02:12AM 9.5900 -76.1460 317° Northwest 478 550 34,000  Level FlightAware
02:13AM 9.6720 -76.2210 318° Northwest 479 551 34,000  Level FlightAware
02:14AM 9.7190 -76.2650 317° Northwest 479 551 34,000  Level FlightAware
02:14AM 9.7980 -76.3420 316° Northwest 478 550 34,000  Level FlightAware
02:15AM 9.8610 -76.3970 319° Northwest 480 552 34,000  Level FlightAware
02:16AM 9.9450 -76.4740 318° Northwest 479 551 34,000  Level FlightAware
02:17AM 9.9970 -76.5240 317° Northwest 481 554 34,000  Level FlightAware
02:17AM 10.0560 -76.5770 319° Northwest 480 552 34,000  Level FlightAware
02:18AM 10.1050 -76.6240 317° Northwest 480 552 34,000  Level FlightAware
02:18AM 10.1860 -76.6980 318° Northwest 482 555 34,000  Level FlightAware
02:19AM 10.2450 -76.7520 318° Northwest 482 555 34,000  Level FlightAware
02:20AM 10.3100 -76.8120 318° Northwest 482 555 34,000  Level FlightAware
02:20AM 10.3920 -76.8910 317° Northwest 483 556 34,000  Level FlightAware
02:21AM 10.4340 -76.9280 319° Northwest 482 555 34,000  Level FlightAware
02:22AM 10.4910 -76.9810 318° Northwest 483 556 34,000  Level FlightAware
02:22AM 10.5710 -77.0550 318° Northwest 483 556 34,000  Level FlightAware
02:23AM 10.6220 -77.1040 317° Northwest 483 556 34,000  Level FlightAware
02:24AM 10.6720 -77.1510 317° Northwest 483 556 34,000  Level FlightAware
02:24AM 10.7440 -77.2160 318° Northwest 481 554 34,000  Level FlightAware
02:25AM 10.8520 -77.3160 318° Northwest 480 552 34,000  Level FlightAware
02:26AM 10.9090 -77.3690 318° Northwest 479 551 34,000  Level FlightAware
02:26AM 10.9440 -77.4030 316° Northwest 472 543 34,000 120 Level FlightAware
02:27AM 11.0270 -77.4720 321° Northwest 469 540 34,200 180 Climbing FlightAware
02:27AM 11.0880 -77.5220 321° Northwest 469 540 34,300 60 Climbing FlightAware
02:28AM 11.1400 -77.5650 321° Northwest 469 540 34,300  Level FlightAware
02:29AM 11.1920 -77.6070 322° Northwest 469 540 34,300  Level FlightAware
02:29AM 11.2430 -77.6500 320° Northwest 469 540 34,300 1,020 Level FlightAware
02:30AM 11.3200 -77.6970 329° Northwest 36,000 1,620 Climbing FlightAware
02:30AM 11.3820 -77.7460 322° Northwest 453 521 36,000  Level FlightAware
02:31AM 11.4470 -77.7950 324° Northwest 465 535 36,000  Level FlightAware
02:32AM 11.5140 -77.8480 322° Northwest 465 535 36,000  Level FlightAware
02:32AM 11.5650 -77.8890 322° Northwest 465 535 36,000  Level FlightAware
02:33AM 11.6170 -77.9310 322° Northwest 465 535 36,000  Level FlightAware
02:33AM 11.6710 -77.9730 323° Northwest 465 535 36,000  Level FlightAware
02:34AM 11.7230 -78.0150 322° Northwest 465 535 36,000  Level FlightAware
02:35AM 11.7740 -78.0560 322° Northwest 465 535 36,000  Level FlightAware
02:35AM 11.8260 -78.0970 322° Northwest 465 535 36,000  Level FlightAware
02:36AM 11.8780 -78.1390 322° Northwest 465 535 36,000  Level FlightAware
02:36AM 11.9300 -78.1800 322° Northwest 465 535 36,000  Level FlightAware
02:37AM 11.9820 -78.2220 322° Northwest 465 535 36,000  Level FlightAware
02:38AM 12.0350 -78.2640 322° Northwest 465 535 36,000  Level FlightAware
02:38AM 12.0870 -78.3060 322° Northwest 465 535 36,000  Level FlightAware
02:39AM 12.1390 -78.3470 322° Northwest 465 535 36,000  Level FlightAware
02:39AM 12.1920 -78.3900 322° Northwest 465 535 36,000  Level FlightAware
02:40AM 12.2440 -78.4310 322° Northwest 465 535 36,000  Level FlightAware
02:41AM 12.2960 -78.4730 322° Northwest 465 535 36,000 -60 Level FlightAware
02:43AM 12.4751 -78.6209 321° Northwest  Level Estimated
02:44AM 12.5694 -78.6989 321° Northwest  Level Estimated
02:45AM 12.6636 -78.7769 321° Northwest  Level Estimated
02:46AM 12.7578 -78.8549 321° Northwest  Level Estimated
02:47AM 12.8520 -78.9330 321° Northwest  Level Estimated
02:48AM 12.9461 -79.0112 321° Northwest  Level Estimated
02:49AM 13.0403 -79.0894 321° Northwest  Level Estimated
02:50AM 13.1344 -79.1677 321° Northwest  Level Estimated
02:51AM 13.2285 -79.2461 321° Northwest  Level Estimated
02:52AM 13.3225 -79.3245 321° Northwest  Level Estimated
02:53AM 13.4166 -79.4029 321° Northwest  Level Estimated
02:54AM 13.5106 -79.4815 321° Northwest  Level Estimated
02:55AM 13.6046 -79.5601 321° Northwest  Level Estimated
02:56AM 13.6985 -79.6387 321° Northwest  Level Estimated
02:57AM 13.7925 -79.7175 321° Northwest  Level Estimated
02:58AM 13.8864 -79.7962 321° Northwest  Level Estimated
02:59AM 13.9803 -79.8751 321° Northwest  Level Estimated
03:00AM 14.0741 -79.9540 321° Northwest  Level Estimated
03:01AM 14.1680 -80.0330 321° Northwest  Level Estimated
03:02AM 14.2618 -80.1120 321° Northwest  Level Estimated
03:03AM 14.3556 -80.1911 321° Northwest  Level Estimated
03:04AM 14.4493 -80.2703 321° Northwest  Level Estimated
03:05AM 14.5430 -80.3495 321° Northwest  Level Estimated
03:06AM 14.6368 -80.4288 321° Northwest  Level Estimated
03:07AM 14.7304 -80.5082 321° Northwest  Level Estimated
03:08AM 14.8241 -80.5877 321° Northwest  Level Estimated
03:09AM 14.9177 -80.6672 321° Northwest  Level Estimated
03:10AM 15.0113 -80.7467 321° Northwest  Level Estimated
03:11AM 15.1049 -80.8264 321° Northwest  Level Estimated
03:12AM 15.1984 -80.9061 321° Northwest  Level Estimated
03:13AM 15.2919 -80.9859 321° Northwest  Level Estimated
03:14AM 15.3854 -81.0658 321° Northwest  Level Estimated
03:15AM 15.4789 -81.1457 321° Northwest  Level Estimated
03:16AM 15.5723 -81.2257 320° Northwest  Level Estimated
03:17AM 15.6657 -81.3058 320° Northwest  Level Estimated
03:18AM 15.7591 -81.3859 320° Northwest  Level Estimated
03:19AM 15.8524 -81.4662 320° Northwest  Level Estimated
03:20AM 15.9457 -81.5465 320° Northwest  Level Estimated
03:21AM 16.0390 -81.6269 320° Northwest  Level Estimated
03:22AM 16.1323 -81.7073 320° Northwest  Level Estimated
03:23AM 16.2255 -81.7878 320° Northwest  Level Estimated
03:24AM 16.3187 -81.8684 320° Northwest  Level Estimated
03:25AM 16.4118 -81.9491 320° Northwest  Level Estimated
03:26AM 16.5050 -82.0299 320° Northwest  Level Estimated
03:27AM 16.5981 -82.1107 320° Northwest  Level Estimated
03:28AM 16.6911 -82.1916 320° Northwest  Level Estimated
03:29AM 16.7842 -82.2726 320° Northwest  Level Estimated
03:30AM 16.8772 -82.3537 320° Northwest  Level Estimated
03:31AM 16.9701 -82.4348 320° Northwest  Level Estimated
03:32AM 17.0631 -82.5161 320° Northwest  Level Estimated
03:33AM 17.1560 -82.5974 320° Northwest  Level Estimated
03:34AM 17.2489 -82.6788 320° Northwest  Level Estimated
03:35AM 17.3417 -82.7603 320° Northwest  Level Estimated
03:36AM 17.4345 -82.8418 320° Northwest  Level Estimated
03:37AM 17.5273 -82.9235 320° Northwest  Level Estimated
03:38AM 17.6200 -83.0052 320° Northwest  Level Estimated
03:39AM 17.7127 -83.0870 320° Northwest  Level Estimated
03:40AM 17.8054 -83.1689 320° Northwest  Level Estimated
03:41AM 17.8981 -83.2509 320° Northwest  Level Estimated
03:42AM 17.9907 -83.3329 320° Northwest  Level Estimated
03:43AM 18.0833 -83.4151 320° Northwest  Level Estimated
03:44AM 18.1758 -83.4973 320° Northwest  Level Estimated
03:45AM 18.2683 -83.5797 320° Northwest  Level Estimated
03:46AM 18.3608 -83.6621 320° Northwest  Level Estimated
03:47AM 18.4532 -83.7446 320° Northwest  Level Estimated
03:48AM 18.5456 -83.8272 320° Northwest  Level Estimated
03:49AM 18.6380 -83.9099 320° Northwest  Level Estimated
03:50AM 18.7303 -83.9926 320° Northwest  Level Estimated
03:51AM 18.8226 -84.0755 320° Northwest  Level Estimated
03:51AM 19.0160 -85.0470 320° Northwest 470 541 34,000  Level FlightAware
03:52AM 18.9148 -84.1584 320° Northwest  Level Estimated
03:52AM 19.0790 -85.1010 321° Northwest 470 541 34,000  Level FlightAware
03:52AM 19.1470 -85.1560 323° Northwest 471 542 34,000  Level FlightAware
03:53AM 19.2340 -85.2300 321° Northwest 471 542 34,000  Level FlightAware
03:54AM 19.2930 -85.2800 321° Northwest 470 541 34,000  Level FlightAware
03:55AM 19.4250 -85.3880 322° Northwest 472 543 34,000  Level FlightAware
03:56AM 19.5000 -85.4500 322° Northwest 472 543 34,000  Level FlightAware
03:56AM 19.5320 -85.4790 320° Northwest 472 543 34,000  Level FlightAware
03:57AM 19.5930 -85.5300 322° Northwest 472 543 34,000  Level FlightAware
03:58AM 19.6850 -85.6060 322° Northwest 473 544 34,000  Level FlightAware
03:58AM 19.7110 -85.6270 323° Northwest 471 542 34,000  Level FlightAware
03:59AM 19.8270 -85.7240 322° Northwest 470 541 34,000  Level FlightAware
04:00AM 19.8810 -85.7720 320° Northwest 467 537 34,000  Level FlightAware
04:00AM 19.9410 -85.8240 321° Northwest 465 535 34,000  Level FlightAware
04:01AM 20.0030 -85.8780 321° Northwest 462 532 34,000  Level FlightAware
04:02AM 20.0950 -85.9540 322° Northwest 459 528 34,000  Level FlightAware
04:02AM 20.1620 -86.0180 318° Northwest 458 527 34,000  Level FlightAware
04:03AM 20.2220 -86.0750 318° Northwest 456 525 34,000  Level FlightAware
04:03AM 20.2360 -86.0970 304° West 456 525 34,000  Level FlightAware
04:04AM 20.2880 -86.1460 319° Northwest 455 524 34,000  Level FlightAware
04:05AM 20.3450 -86.2010 318° Northwest 453 521 34,000  Level FlightAware
04:05AM 20.4160 -86.2700 318° Northwest 454 522 34,000  Level FlightAware
04:06AM 20.5070 -86.3490 321° Northwest 453 521 34,000  Level FlightAware
04:07AM 20.5610 -86.4010 318° Northwest 453 521 34,000  Level FlightAware
04:07AM 20.5750 -86.4230 304° West 453 521 34,000  Level FlightAware
04:08AM 20.6560 -86.5010 318° Northwest 453 521 34,000  Level FlightAware
04:09AM 20.7150 -86.5560 319° Northwest 452 520 34,000  Level FlightAware
04:09AM 20.7780 -86.6190 317° Northwest 450 518 34,000  Level FlightAware
04:10AM 20.8290 -86.6680 318° Northwest 452 520 34,000  Level FlightAware
04:10AM 20.8860 -86.7240 317° Northwest 452 520 34,000  Level FlightAware
04:11AM 20.9600 -86.7870 322° Northwest 450 518 34,000  Level FlightAware
04:12AM 20.9420 -86.7780 155° Southeast 452 520 34,000  Level FlightAware
04:12AM 21.1000 -86.9230 319° Northwest 452 520 34,000  Level FlightAware
04:13AM 21.1220 -86.9540 307° West 452 520 34,000  Level FlightAware
04:14AM 21.2260 -87.0480 320° Northwest 450 518 34,000  Level FlightAware
04:15AM 21.2730 -87.1020 313° West 451 519 34,000  Level FlightAware
04:15AM 21.3260 -87.1540 318° Northwest 451 519 34,000  Level FlightAware
04:16AM 21.3960 -87.2230 317° Northwest 450 518 34,000  Level FlightAware
04:16AM 21.4450 -87.2720 317° Northwest 450 518 34,000  Level FlightAware
04:17AM 21.5250 -87.3420 321° Northwest 449 517 34,000  Level FlightAware
04:18AM 21.5770 -87.3940 317° Northwest 450 518 34,000  Level FlightAware
04:18AM 21.6360 -87.4520 318° Northwest 450 518 34,000  Level FlightAware
04:19AM 21.6680 -87.4920 311° West 450 518 34,000  Level FlightAware
04:20AM 21.7420 -87.5650 318° Northwest 451 519 34,000  Level FlightAware
04:20AM 21.8310 -87.6460 320° Northwest 449 517 34,000  Level FlightAware
04:21AM 21.8820 -87.6970 317° Northwest 449 517 34,000  Level FlightAware
04:22AM 21.8660 -87.6890 155° Southeast 450 518 34,000  Level FlightAware
04:22AM 21.9280 -87.7510 317° Northwest 451 519 34,000  Level FlightAware
04:23AM 22.0120 -87.8280 320° Northwest 450 518 34,000  Level FlightAware
04:24AM 22.1010 -87.9270 314° West 449 517 34,000  Level FlightAware
04:24AM 22.1540 -87.9790 318° Northwest 449 517 34,000  Level FlightAware
04:25AM 22.1980 -88.0230 317° Northwest 449 517 34,000  Level FlightAware
04:25AM 22.2460 -88.0640 322° Northwest 448 516 34,000  Level FlightAware
04:26AM 22.3180 -88.1450 314° West 449 517 34,000  Level FlightAware
04:27AM 22.3940 -88.2150 320° Northwest 447 514 34,000  Level FlightAware
04:27AM 22.4240 -88.2530 311° West 448 516 34,000  Level FlightAware
04:28AM 22.5120 -88.3350 319° Northwest 447 514 34,000  Level FlightAware
04:28AM 22.5310 -88.3610 308° West 449 517 34,000  Level FlightAware
04:29AM 22.6360 -88.4570 320° Northwest 449 517 34,000  Level FlightAware
04:30AM 22.6960 -88.5020 325° Northwest 449 517 34,000  Level FlightAware
04:30AM 22.7570 -88.5480 325° Northwest 451 519 34,000  Level FlightAware
04:31AM 22.7940 -88.5720 329° Northwest 451 519 34,000  Level FlightAware
04:32AM 22.8480 -88.6140 324° Northwest 451 519 34,000  Level FlightAware
04:32AM 22.9440 -88.6860 325° Northwest 451 519 34,000  Level FlightAware
04:33AM 22.9970 -88.7240 327° Northwest 452 520 34,000  Level FlightAware
04:34AM 23.0800 -88.7870 325° Northwest 451 519 34,000  Level FlightAware
04:34AM 23.1460 -88.8360 326° Northwest 451 519 34,000  Level FlightAware
04:35AM 23.1530 -88.8390 338° Northwest 451 519 34,000  Level FlightAware
04:36AM 23.2310 -88.8970 326° Northwest 451 519 34,000  Level FlightAware
04:36AM 23.3570 -88.9920 325° Northwest 451 519 34,000  Level FlightAware
04:37AM 23.4490 -89.0630 325° Northwest 451 519 34,000  Level FlightAware
04:38AM 23.4610 -89.0690 335° Northwest 449 517 34,000  Level FlightAware
04:39AM 23.5790 -89.1570 326° Northwest 450 518 34,000  Level FlightAware
04:39AM 23.5800 -89.1580 317° Northwest 450 518 34,000  Level FlightAware
04:40AM 23.6510 -89.2120 325° Northwest 451 519 34,000  Level FlightAware
04:41AM 23.7330 -89.2730 326° Northwest 451 519 34,000  Level FlightAware
04:41AM 23.8270 -89.3470 324° Northwest 452 520 34,000  Level FlightAware
04:42AM 23.8800 -89.3870 325° Northwest 452 520 34,000  Level FlightAware
04:42AM 23.9480 -89.4380 326° Northwest 451 519 34,000  Level FlightAware
04:43AM 24.0050 -89.4810 325° Northwest 451 519 34,000  Level FlightAware
04:44AM 24.0570 -89.5220 324° Northwest 451 519 34,000  Level FlightAware
04:45AM 24.1320 -89.5730 328° Northwest 454 522 34,000  Level FlightAware
04:45AM 24.2060 -89.6290 325° Northwest 454 522 34,000  Level FlightAware
04:46AM 24.3240 -89.7210 325° Northwest 454 522 34,000  Level FlightAware
04:47AM 24.3760 -89.7620 324° Northwest 454 522 34,000  Level FlightAware
04:48AM 24.4300 -89.8030 325° Northwest 454 522 34,000  Level FlightAware
04:48AM 24.4590 -89.8210 331° Northwest 515 593 34,000  Level FlightAware
04:49AM 24.5290 -89.8750 325° Northwest 456 525 34,000  Level FlightAware
04:49AM 24.5820 -89.9160 325° Northwest 456 525 34,000  Level FlightAware
04:50AM 24.6350 -89.9570 325° Northwest 456 525 34,000  Level FlightAware
04:50AM 24.6880 -89.9970 326° Northwest 456 525 34,000  Level FlightAware
04:51AM 24.7400 -90.0380 324° Northwest 456 525 34,000  Level FlightAware
04:52AM 24.7930 -90.0790 325° Northwest 456 525 34,000  Level FlightAware
04:52AM 24.8460 -90.1200 325° Northwest 456 525 34,000  Level FlightAware
04:53AM 24.8990 -90.1600 326° Northwest 456 525 34,000  Level FlightAware
04:53AM 24.9520 -90.2010 325° Northwest 456 525 34,000  Level FlightAware
04:54AM 25.0060 -90.2430 325° Northwest 456 525 34,000  Level FlightAware
04:55AM 25.0590 -90.2840 325° Northwest 456 525 34,000  Level FlightAware
04:55AM 25.1120 -90.3250 325° Northwest 456 525 34,000  Level FlightAware
04:56AM 25.1650 -90.3660 325° Northwest 456 525 34,000  Level FlightAware
04:56AM 25.2190 -90.4080 325° Northwest 456 525 34,000  Level FlightAware
04:57AM 25.2720 -90.4490 325° Northwest 456 525 34,000  Level FlightAware
04:58AM 25.3250 -90.4900 325° Northwest 456 525 34,000  Level FlightAware
05:00AM 25.5194 -90.6391 325° Northwest  Level FlightAware Approximate
05:01AM 25.6198 -90.7165 325° Northwest  Level FlightAware Approximate
05:02AM 25.7203 -90.7939 325° Northwest  Level FlightAware Approximate
05:03AM 25.8207 -90.8715 325° Northwest  Level FlightAware Approximate
05:04AM 25.9210 -90.9492 325° Northwest  Level FlightAware Approximate
05:05AM 26.0213 -91.0271 325° Northwest  Level FlightAware Approximate
05:06AM 26.1216 -91.1051 325° Northwest  Level FlightAware Approximate
05:07AM 26.2218 -91.1832 325° Northwest  Level FlightAware Approximate
05:08AM 26.3220 -91.2614 325° Northwest  Level FlightAware Approximate
05:09AM 26.4232 -91.3382 326° Northwest  Level FlightAware Approximate
05:10AM 26.5239 -91.4157 324° Northwest  Level FlightAware Approximate
05:11AM 26.6234 -91.4954 324° Northwest  Level FlightAware Approximate
05:12AM 26.7228 -91.5751 324° Northwest  Level FlightAware Approximate
05:13AM 26.8221 -91.6550 324° Northwest  Level FlightAware Approximate
05:13AM 26.5761 -92.2894 322° Northwest 429 494 34,000  Level Houston Center
05:14AM 26.9214 -91.7350 324° Northwest  Level FlightAware Approximate
05:14AM 26.6769 -92.3689 325° Northwest 438 504 34,000  Level Houston Center
05:14AM 26.7761 -92.4397 324° Northwest 445 512 34,000  Level FlightAware ADS-B
05:17AM 26.9805 -92.6179 322° Northwest  Level Estimated
05:18AM 27.0770 -92.7023 322° Northwest  Level Estimated
05:19AM 27.2657 -92.8187 325° Northwest 450 518 34,000  Level FlightAware ADS-B
05:20AM 33.4597 -98.5777 323° Northwest 450 518 34,000  Level FlightAware ADS-B
05:21AM 27.4520 -92.9633 140° Southeast 449 517 34,000  Level FlightAware ADS-B
05:21AM 27.5061 -93.0053 325° Northwest 451 519 34,000  Level FlightAware ADS-B
05:22AM 27.5603 -93.0478 325° Northwest 449 517 34,000  Level FlightAware ADS-B
05:22AM 27.5707 -93.0567 323° Northwest 452 520 34,000  Level FlightAware ADS-B
05:23AM 27.6933 -93.1517 326° Northwest 451 519 34,000  Level FlightAware ADS-B
05:23AM 27.7051 -93.1624 321° Northwest 450 518 34,000  Level FlightAware ADS-B
05:24AM 27.7992 -93.2350 326° Northwest 450 518 34,000  Level FlightAware ADS-B
05:24AM 27.8105 -93.2452 321° Northwest 452 520 34,000  Level FlightAware ADS-B
05:25AM 27.9170 -93.3275 326° Northwest 449 517 34,000  Level FlightAware ADS-B
05:26AM 27.9306 -93.3399 321° Northwest 449 517 34,000  Level FlightAware ADS-B
05:26AM 28.0223 -93.4104 326° Northwest 449 517 34,000  Level FlightAware ADS-B
05:27AM 28.0341 -93.4217 320° Northwest 456 525 34,000  Level FlightAware ADS-B
05:27AM 28.0882 -93.4631 326° Northwest 457 526 34,000  Level FlightAware ADS-B
05:28AM 28.1425 -93.5077 324° Northwest 462 532 34,000  Level FlightAware ADS-B
05:28AM 28.1955 -93.5498 325° Northwest 464 534 34,000  Level FlightAware ADS-B
05:29AM 28.2887 -93.6214 326° Northwest 463 533 34,000  Level FlightAware ADS-B
05:29AM 28.3070 -93.6385 321° Northwest 466 536 34,000 -300 Level FlightAware ADS-B
05:30AM 28.3606 -93.6813 325° Northwest 471 542 33,700 -1,200 Descending FlightAware ADS-B
05:30AM 28.4538 -93.7533 326° Northwest 469 540 32,800 -2,220 Descending FlightAware ADS-B
05:31AM 28.5419 -93.8262 324° Northwest 456 525 29,900 -2,400 Descending FlightAware ADS-B
05:32AM 28.5930 -93.8671 325° Northwest 448 516 28,700 -2,220 Descending FlightAware ADS-B
05:32AM 28.6445 -93.9085 325° Northwest 456 525 27,700 -2,100 Descending FlightAware ADS-B
05:33AM 28.7337 -93.9773 326° Northwest 450 518 26,600 -2,220 Descending FlightAware ADS-B
05:33AM 28.7849 -94.0187 325° Northwest 442 509 25,500 -2,100 Descending FlightAware ADS-B
05:34AM 28.8371 -94.0604 325° Northwest 447 514 24,500 -1,980 Descending FlightAware ADS-B
05:37AM 29.1510 -94.3150 325° Northwest 424 488 18,300 -1,980 Descending FlightAware
05:38AM 29.1990 -94.3540 325° Northwest 412 474 17,300 -1,980 Descending FlightAware
05:38AM 29.2650 -94.4070 325° Northwest 407 468 15,900 -2,100 Descending FlightAware
05:39AM 29.3226 -94.4542 324° Northwest 397 457 14,600 -1,980 Descending FlightAware ADS-B
05:39AM 29.3669 -94.4906 324° Northwest 393 452 13,700 -1,920 Descending FlightAware ADS-B
05:40AM 29.4114 -94.5269 325° Northwest 388 447 12,700 -1,920 Descending FlightAware ADS-B
05:40AM 29.4546 -94.5624 324° Northwest 373 429 11,800 -1,320 Descending FlightAware ADS-B
05:41AM 29.4956 -94.5961 324° Northwest 349 402 11,400 -720 Descending FlightAware ADS-B
05:42AM 29.5340 -94.6275 325° Northwest 325 374 11,100 -600 Descending FlightAware ADS-B
05:42AM 29.5695 -94.6565 325° Northwest 304 350 10,800 -1,020 Descending FlightAware ADS-B
05:43AM 29.5701 -94.6603 280° West 297 342 10,100 -1,380 Descending FlightAware ADS-B
05:43AM 29.6209 -94.6987 327° Northwest 296 341 9,800 -1,380 Descending FlightAware ADS-B
05:43AM 29.6381 -94.7128 325° Northwest 297 342 9,400 -1,560 Descending FlightAware ADS-B
05:43AM 29.6552 -94.7268 325° Northwest 296 341 9,000 -1,620 Descending FlightAware ADS-B
05:44AM 29.6720 -94.7406 324° Northwest 295 339 8,600 -1,440 Descending FlightAware ADS-B
05:44AM 29.6888 -94.7546 324° Northwest 294 338 8,300 -1,200 Descending FlightAware ADS-B
05:44AM 29.7059 -94.7685 325° Northwest 292 336 8,000 -1,380 Descending FlightAware ADS-B
05:44AM 29.7226 -94.7825 324° Northwest 290 334 7,600 -1,440 Descending FlightAware ADS-B
05:45AM 29.7391 -94.7961 324° Northwest 289 333 7,300 -1,440 Descending FlightAware ADS-B
05:45AM 29.7555 -94.8095 325° Northwest 286 329 6,900 -1,440 Descending FlightAware ADS-B
05:45AM 29.7715 -94.8232 323° Northwest 285 328 6,600 -1,200 Descending FlightAware ADS-B
05:45AM 29.7881 -94.8368 325° Northwest 282 325 6,300 -1,020 Descending FlightAware ADS-B
05:46AM 29.8043 -94.8499 325° Northwest 285 328 6,100 -840 Descending FlightAware ADS-B
05:46AM 29.8209 -94.8636 324° Northwest 287 330 5,900 -1,020 Descending FlightAware ADS-B
05:46AM 29.8369 -94.8766 325° Northwest 289 333 5,600 -900 Descending FlightAware ADS-B
05:46AM 29.8503 -94.8879 324° Northwest 287 330 5,500 -900 Descending FlightAware ADS-B
05:47AM 29.8668 -94.9016 324° Northwest 286 329 5,200 -1,080 Descending FlightAware ADS-B
05:47AM 29.8815 -94.9139 324° Northwest 286 329 5,000 -840 Descending FlightAware ADS-B
05:47AM 29.8980 -94.9274 325° Northwest 285 328 4,800 -780 Descending FlightAware ADS-B
05:47AM 29.9145 -94.9411 324° Northwest 286 329 4,600 -960 Descending FlightAware ADS-B
05:48AM 29.9004 -94.9326 152° Southeast 286 329 4,300 -1,020 Descending FlightAware ADS-B
05:48AM 29.9541 -94.9740 326° Northwest 281 323 4,000 -540 Descending FlightAware ADS-B
05:48AM 29.9696 -94.9867 325° Northwest 265 305 4,000  Level FlightAware ADS-B
05:48AM 29.9830 -94.9981 324° Northwest 249 287 4,000  Level FlightAware ADS-B
05:49AM 29.9924 -95.0058 325° Northwest 243 280 4,000  Level FlightAware ADS-B
05:49AM 29.9967 -95.0097 322° Northwest 244 281 4,000  Level FlightAware ADS-B
05:49AM 29.9993 -95.0124 318° Northwest 244 281 4,000  Level FlightAware ADS-B
05:49AM 30.0017 -95.0154 313° West 245 282 4,000  Level FlightAware ADS-B
05:49AM 30.0043 -95.0198 304° West 245 282 4,000  Level FlightAware ADS-B
05:49AM 30.0060 -95.0235 298° West 243 280 4,000  Level FlightAware ADS-B
05:49AM 30.0072 -95.0271 291° West 242 278 4,000  Level FlightAware ADS-B
05:49AM 30.0084 -95.0328 284° West 236 272 4,000  Level FlightAware ADS-B
05:49AM 30.0095 -95.0403 280° West 229 264 4,000  Level FlightAware ADS-B
05:49AM 30.0100 -95.0466 275° West 222 255 4,000  Level FlightAware ADS-B
05:49AM 30.0104 -95.0540 274° West 213 245 4,000  Level FlightAware ADS-B
05:49AM 30.0102 -95.0625 268° West 209 241 4,000  Level FlightAware ADS-B
05:50AM 30.0099 -95.0719 268° West 206 237 4,000  Level FlightAware ADS-B
05:50AM 30.0098 -95.0820 269° West 205 236 4,000 -300 Level FlightAware ADS-B
05:50AM 30.0100 -95.0945 271° West 211 243 3,900 -900 Descending FlightAware ADS-B
05:50AM 30.0100 -95.1064 270° West 211 243 3,700 -1,200 Descending FlightAware ADS-B
05:50AM 30.0100 -95.1231 270° West 207 238 3,400 -960 Descending FlightAware ADS-B
05:51AM 30.0100 -95.1411 270° West 204 235 3,200 -1,020 Descending FlightAware ADS-B
05:51AM 30.0099 -95.1575 270° West 198 228 2,900 -1,200 Descending FlightAware ADS-B
05:51AM 30.0098 -95.1731 270° West 192 221 2,600 -1,020 Descending FlightAware ADS-B
05:51AM 30.0100 -95.1892 271° West 187 215 2,400 -1,020 Descending FlightAware ADS-B
05:52AM 30.0100 -95.2040 270° West 181 208 2,100 -1,080 Descending FlightAware ADS-B
05:52AM 30.0099 -95.2258 270° West 169 194 1,700 -900 Descending FlightAware ADS-B
05:52AM 30.0099 -95.2447 270° West 149 171 1,400 -720 Descending FlightAware ADS-B
05:53AM 30.0099 -95.2603 270° West 150 173 1,200 -780 Descending FlightAware ADS-B
05:53AM 30.0100 -95.2694 271° West 151 174 1,000 -900 Descending FlightAware ADS-B
05:53AM 30.0099 -95.2759 269° West 152 175 900 -600 Descending FlightAware ADS-B
05:53AM 30.0099 -95.2871 270° West 155 178 800 -660 Descending FlightAware ADS-B
05:54AM 30.0099 -95.2999 270° West 155 178 600 -960 Descending FlightAware ADS-B
05:54AM 30.0097 -95.3134 269° West 155 178 300 -1,080 Descending FlightAware ADS-B
05:54AM 30.0098 -95.3193 271° West 154 177 200 -900 Descending FlightAware ADS-B
05:54AM 30.0098 -95.3252 270° West 153 176 100 -900 Descending FlightAware ADS-B